Thor, South Carolina
Current Conditions -  °F | °C
As of 8:56 AM on Monday 22 Dec 2014 (Local Time) from KCAE Reporting Station
Haze Haze  
Wind Chill: 42°   Ceiling: 500
Heat Index: 45°   Visibility: 3mi
Dew Point: 43°   Wind: 6mph
Humidity: 93%   Direction: 60°ENE
Pressure: 30.1"   Gusts: NA
Location:  33.7682°N, 81.2599°W
Report Text: KCAE 221356Z 06005KT 3SM BR OVC005 07/06 A3010 RMK AO2 RAE09 SLP193 P0000 T00720061
Loading
Personal Weather Stations






























Interactive Weather Map New forecast layout! Learn more

10-Day Weather Forecast

Advertisements
Track Severe Weather on mobile